Time;durP1;ratioP1;P1;durP2;ratioP2;P2;SDS_P1;SDS_P2;PMS_P1;PMS_P2;Temp;Humidity;BMP_temperature;BMP_pressure;BME280_temperature;BME280_humidity;BME280_pressure;Samples;Min_cycle;Max_cycle;Signal;HPM_P1;HPM_P2
2023/12/16 00:01:23;;;;;;;0.90;0.90;;;;;;;-142.91;100.00;56616.03;5055851;28;20298;-74
2023/12/16 00:03:49;;;;;;;1.50;1.40;;;;;;;-142.91;100.00;56616.03;5052869;28;20290;-75
2023/12/16 00:06:20;;;;;;;1.52;1.42;;;;;;;-142.91;100.00;56616.03;5051539;28;20202;-74
2023/12/16 00:08:47;;;;;;;1.48;1.38;;;;;;;-142.91;100.00;56616.03;5043995;28;20257;-76
2023/12/16 00:11:13;;;;;;;1.60;1.50;;;;;;;-142.91;100.00;56616.03;5039108;28;20669;-73
2023/12/16 00:13:40;;;;;;;1.85;1.75;;;;;;;;;;5069376;28;20755;-75
2023/12/16 00:16:06;;;;;;;2.97;2.78;;;;;;;;;;5063507;28;20246;-75
2023/12/16 00:18:35;;;;;;;4.55;4.25;;;;;;;-142.91;100.00;56616.03;5062433;28;20230;-75
2023/12/16 00:21:02;;;;;;;5.38;4.88;;;;;;;-142.91;100.00;56616.03;5049802;28;20724;-75
2023/12/16 00:23:31;;;;;;;6.07;5.68;;;;;;;23.41;100.00;56616.03;5046536;28;20210;-75
2023/12/16 00:25:57;;;;;;;6.35;5.85;;;;;;;-142.91;100.00;56616.03;5042072;28;20199;-76
2023/12/16 00:28:24;;;;;;;5.15;4.75;;;;;;;;;;5044910;28;20231;-75
2023/12/16 00:30:50;;;;;;;5.70;5.35;;;;;;;-142.91;100.00;56616.03;5049837;28;20286;-75
2023/12/16 00:33:17;;;;;;;6.05;5.65;;;;;;;-142.91;100.00;56616.03;5047144;28;20712;-75
2023/12/16 00:35:43;;;;;;;6.78;6.30;;;;;;;-142.91;100.00;56616.03;5053947;28;20278;-75
2023/12/16 00:38:11;;;;;;;6.18;5.78;;;;;;;;;;5057452;28;20688;-75
2023/12/16 00:40:39;;;;;;;4.07;3.78;;;;;;;;;;5048946;28;20692;-74
2023/12/16 00:43:06;;;;;;;3.35;3.10;;;;;;;-142.91;100.00;56616.03;5050676;28;20641;-74
2023/12/16 00:45:32;;;;;;;2.00;1.90;;;;;;;;;;5047930;28;20199;-75
2023/12/16 00:47:58;;;;;;;2.17;2.08;;;;;;;;;;5053188;28;20704;-74
2023/12/16 00:50:25;;;;;;;2.17;2.03;;;;;;;-142.91;100.00;56616.03;5053095;28;20230;-75
2023/12/16 00:52:52;;;;;;;1.60;1.50;;;;;;;;;;5053843;28;20643;-74
2023/12/16 00:55:18;;;;;;;1.25;1.23;;;;;;;;;;5056445;28;20656;-76
2023/12/16 00:57:46;;;;;;;1.73;1.63;;;;;;;;;;5057807;28;20242;-75
2023/12/16 01:00:13;;;;;;;1.20;1.20;;;;;;;;;;5050743;28;20670;-75
2023/12/16 01:02:39;;;;;;;1.30;1.30;;;;;;;-142.91;100.00;56616.03;5048090;28;20201;-74
2023/12/16 01:05:06;;;;;;;1.30;1.23;;;;;;;;;;5044634;28;20271;-74
2023/12/16 01:07:32;;;;;;;1.38;1.27;;;;;;;-142.91;100.00;56616.03;5044983;28;20291;-76
2023/12/16 01:09:59;;;;;;;1.52;1.42;;;;;;;-142.91;100.00;56616.03;5032619;28;20278;-75
2023/12/16 01:12:26;;;;;;;0.93;0.93;;;;;;;;;;5033605;28;20242;-75
2023/12/16 01:14:54;;;;;;;1.20;1.20;;;;;;;-142.91;100.00;56616.03;5039434;28;20203;-74
2023/12/16 01:17:20;;;;;;;1.20;1.20;;;;;;;;;;5050931;28;20265;-75
2023/12/16 01:19:47;;;;;;;1.17;1.08;;;;;;;;;;5051195;28;20210;-75
2023/12/16 01:22:14;;;;;;;0.98;0.98;;;;;;;-142.91;100.00;56616.03;5050927;28;20198;-76
2023/12/16 01:24:40;;;;;;;1.60;1.50;;;;;;;-142.91;100.00;56616.03;5051478;28;20205;-75
2023/12/16 01:27:07;;;;;;;1.45;1.35;;;;;;;-142.91;100.00;56616.03;5050113;28;20285;-74
2023/12/16 01:29:33;;;;;;;1.42;1.30;;;;;;;;;;5047631;28;20219;-77
2023/12/16 01:32:01;;;;;;;1.45;1.35;;;;;;;23.26;100.00;56616.03;5049891;28;20301;-75
2023/12/16 01:34:28;;;;;;;1.33;1.33;;;;;;;-142.91;100.00;56616.03;5044529;28;20231;-77
2023/12/16 01:36:54;;;;;;;1.20;1.20;;;;;;;-142.91;100.00;56616.03;5052659;28;20341;-76
2023/12/16 01:39:21;;;;;;;1.15;1.13;;;;;;;-142.91;100.00;56616.03;5052371;28;20640;-75
2023/12/16 01:41:48;;;;;;;1.40;1.30;;;;;;;23.25;100.00;56616.03;5070163;28;20664;-75
2023/12/16 01:44:14;;;;;;;1.00;1.00;;;;;;;-142.91;100.00;56616.03;5052500;28;20292;-74
2023/12/16 01:46:41;;;;;;;1.23;1.13;;;;;;;-142.91;100.00;56616.03;5064286;28;20191;-76
2023/12/16 01:49:10;;;;;;;1.05;1.02;;;;;;;23.25;100.00;56616.03;5057224;28;20771;-75
2023/12/16 01:51:38;;;;;;;1.33;1.23;;;;;;;-142.91;100.00;56616.03;5058501;28;20202;-75
2023/12/16 01:54:05;;;;;;;1.17;1.17;;;;;;;;;;5062986;28;20289;-76
2023/12/16 01:56:33;;;;;;;0.93;0.93;;;;;;;23.25;100.00;56616.03;5063005;28;20237;-73
2023/12/16 01:59:00;;;;;;;1.13;1.13;;;;;;;-142.91;100.00;56616.03;5069942;28;20285;-75
2023/12/16 02:01:27;;;;;;;1.17;1.10;;;;;;;-142.91;100.00;56616.03;5070665;28;20233;-75
2023/12/16 02:03:54;;;;;;;1.55;1.45;;;;;;;-142.91;100.00;56616.03;5069272;28;20233;-74
2023/12/16 02:06:23;;;;;;;1.27;1.27;;;;;;;-142.91;100.00;56616.03;5070695;28;20285;-75
2023/12/16 02:08:49;;;;;;;1.27;1.20;;;;;;;;;;5060611;28;20285;-74
2023/12/16 02:11:16;;;;;;;1.20;1.20;;;;;;;-142.91;100.00;56616.03;5053551;28;20226;-74
2023/12/16 02:13:43;;;;;;;1.48;1.42;;;;;;;-142.91;100.00;56616.03;5053337;28;20266;-75
2023/12/16 02:16:10;;;;;;;1.08;1.08;;;;;;;-142.91;100.00;56616.03;5051311;28;20285;-75
2023/12/16 02:18:37;;;;;;;1.27;1.17;;;;;;;-142.91;100.00;56616.03;5050859;28;20895;-75
2023/12/16 02:21:04;;;;;;;1.02;1.02;;;;;;;-142.91;100.00;56616.03;5056988;28;20256;-74
2023/12/16 02:23:32;;;;;;;1.05;1.05;;;;;;;23.25;100.00;56616.03;5057550;28;20294;-75
2023/12/16 02:26:00;;;;;;;1.10;1.10;;;;;;;-142.91;100.00;56616.03;5071388;28;20226;-75
2023/12/16 02:28:27;;;;;;;1.00;1.00;;;;;;;;;;5072414;28;20194;-74
2023/12/16 02:30:54;;;;;;;1.02;1.02;;;;;;;;;;5045700;28;20218;-75
2023/12/16 02:33:20;;;;;;;1.08;1.08;;;;;;;;;;5070338;28;20308;-75
2023/12/16 02:35:47;;;;;;;1.30;1.20;;;;;;;23.25;100.00;56616.03;5053263;28;20700;-74
2023/12/16 02:38:14;;;;;;;1.40;1.40;;;;;;;-142.91;100.00;56616.03;5053288;28;20711;-74
2023/12/16 02:40:42;;;;;;;1.20;1.10;;;;;;;-142.91;100.00;56616.03;5056101;28;20230;-74
2023/12/16 02:43:09;;;;;;;1.10;1.00;;;;;;;;;;5054505;28;20492;-74
2023/12/16 02:45:36;;;;;;;1.20;1.10;;;;;;;-142.91;100.00;56616.03;5055053;28;20203;-75
2023/12/16 02:48:02;;;;;;;1.08;1.08;;;;;;;;;;5055608;28;20278;-75
2023/12/16 02:50:29;;;;;;;1.30;1.20;;;;;;;-142.91;100.00;56616.03;5055595;28;20662;-75
2023/12/16 02:52:55;;;;;;;1.33;1.23;;;;;;;-142.91;100.00;56616.03;5055061;28;20294;-75
2023/12/16 02:55:22;;;;;;;0.90;0.90;;;;;;;23.25;100.00;56616.03;5055369;28;20222;-74
2023/12/16 02:57:50;;;;;;;1.00;1.00;;;;;;;23.26;100.00;56616.03;5054758;28;20671;-74
2023/12/16 03:00:16;;;;;;;3.30;1.58;;;;;;;23.25;100.00;56616.03;5054603;28;20293;-75
2023/12/16 03:02:43;;;;;;;1.38;1.27;;;;;;;-142.91;100.00;56616.03;5053762;28;20302;-74
2023/12/16 03:05:09;;;;;;;1.70;1.60;;;;;;;;;;5062379;28;20313;-75
2023/12/16 03:07:38;;;;;;;2.00;1.90;;;;;;;23.25;100.00;56616.03;5071477;28;20286;-75
2023/12/16 03:10:05;;;;;;;1.63;1.35;;;;;;;23.25;100.00;56616.03;5064829;28;20692;-75
2023/12/16 03:12:32;;;;;;;1.48;1.38;;;;;;;-142.91;100.00;56616.03;5053901;28;20238;-75
2023/12/16 03:15:00;;;;;;;1.52;1.42;;;;;;;23.26;100.00;56616.03;5054456;28;20199;-75
2023/12/16 03:17:27;;;;;;;1.55;1.45;;;;;;;-142.91;100.00;56616.03;5054046;28;20237;-75
2023/12/16 03:19:53;;;;;;;1.60;1.50;;;;;;;;;;5054583;28;20289;-75
2023/12/16 03:22:20;;;;;;;2.42;2.00;;;;;;;23.25;100.00;56616.03;5057085;28;20245;-73
2023/12/16 03:24:47;;;;;;;1.48;1.45;;;;;;;23.26;100.00;56616.03;5056028;28;20277;-73
2023/12/16 03:27:13;;;;;;;1.30;1.27;;;;;;;-142.91;100.00;56616.03;5054864;28;20252;-74
2023/12/16 03:29:40;;;;;;;1.60;1.50;;;;;;;23.26;100.00;56616.03;5054636;28;20286;-74
2023/12/16 03:32:08;;;;;;;1.50;1.40;;;;;;;23.25;100.00;56616.03;5058108;28;20254;-74
2023/12/16 03:34:34;;;;;;;1.42;1.33;;;;;;;23.26;100.00;56616.03;5054930;28;20656;-74
2023/12/16 03:37:01;;;;;;;1.20;1.10;;;;;;;-142.91;100.00;56616.03;5053271;28;20234;-75
2023/12/16 03:39:28;;;;;;;0.80;0.80;;;;;;;-142.91;100.00;56616.03;5052485;28;20764;-75
2023/12/16 03:41:55;;;;;;;0.80;0.80;;;;;;;23.25;100.00;56616.03;5051284;28;20256;-76
2023/12/16 03:44:22;;;;;;;1.08;1.00;;;;;;;23.25;100.00;56616.03;5062212;28;20687;-76
2023/12/16 03:46:49;;;;;;;1.02;1.00;;;;;;;-142.91;100.00;56616.03;5058342;28;20198;-74
2023/12/16 03:49:16;;;;;;;1.38;0.90;;;;;;;23.25;100.00;56616.03;5060599;28;20286;-75
2023/12/16 03:51:43;;;;;;;0.95;0.80;;;;;;;23.25;100.00;56616.03;5051697;28;20230;-75
2023/12/16 03:54:10;;;;;;;0.93;0.93;;;;;;;;;;5052251;28;20800;-75
2023/12/16 03:56:37;;;;;;;1.00;1.00;;;;;;;;;;5069328;28;20194;-75
2023/12/16 03:59:04;;;;;;;1.00;1.00;;;;;;;23.25;100.00;56616.03;5073218;28;20309;-75
2023/12/16 04:01:30;;;;;;;0.90;0.82;;;;;;;23.25;100.00;56616.03;5071862;28;20203;-75
2023/12/16 04:03:57;;;;;;;1.30;1.30;;;;;;;;;;5073448;28;20233;-75
2023/12/16 04:06:25;;;;;;;1.00;1.00;;;;;;;23.25;100.00;56616.03;5074884;28;20622;-74
2023/12/16 04:08:52;;;;;;;0.95;0.95;;;;;;;;;;5073720;28;20194;-74
2023/12/16 04:11:18;;;;;;;0.93;0.93;;;;;;;23.25;100.00;56616.03;5071840;28;20240;-74
2023/12/16 04:13:44;;;;;;;3.22;1.00;;;;;;;23.25;100.00;56616.03;5073240;28;20289;-75
2023/12/16 04:16:11;;;;;;;0.50;0.50;;;;;;;-142.91;100.00;56616.03;5071010;28;20278;-73
2023/12/16 04:18:37;;;;;;;0.70;0.70;;;;;;;-142.91;100.00;56616.03;5064743;28;20294;-73
2023/12/16 04:21:05;;;;;;;1.00;1.00;;;;;;;23.25;100.00;56616.03;5055076;28;20672;-74
2023/12/16 04:23:33;;;;;;;0.52;0.52;;;;;;;-142.91;100.00;56616.03;5054304;28;20199;-74
2023/12/16 04:26:00;;;;;;;0.50;0.50;;;;;;;23.25;100.00;56616.03;5056020;28;20199;-74
2023/12/16 04:28:26;;;;;;;0.68;0.68;;;;;;;-142.91;100.00;56616.03;5059015;28;20195;-75
2023/12/16 04:30:53;;;;;;;1.80;1.30;;;;;;;;;;5055727;28;20191;-76
2023/12/16 04:33:19;;;;;;;3.60;1.10;;;;;;;;;;5053917;28;20227;-75
2023/12/16 04:35:46;;;;;;;0.75;0.75;;;;;;;-142.91;100.00;56616.03;5054220;28;20249;-75
2023/12/16 04:38:12;;;;;;;0.80;0.80;;;;;;;-142.91;100.00;56616.03;5065721;28;20302;-74
2023/12/16 04:40:40;;;;;;;1.25;1.23;;;;;;;23.26;100.00;56616.03;5068274;28;20234;-75
2023/12/16 04:43:07;;;;;;;1.80;1.70;;;;;;;23.25;100.00;56616.03;5047924;28;20207;-75
2023/12/16 04:45:35;;;;;;;2.15;2.05;;;;;;;23.25;100.00;56616.03;5053289;28;20226;-74
2023/12/16 04:48:02;;;;;;;2.25;2.15;;;;;;;-142.91;100.00;56616.03;5051484;28;20676;-74
2023/12/16 04:50:28;;;;;;;2.00;1.90;;;;;;;-142.91;100.00;56616.03;5060115;28;20656;-73
2023/12/16 04:52:55;;;;;;;2.55;2.45;;;;;;;-142.91;100.00;56616.03;5071525;28;20233;-75
2023/12/16 04:55:22;;;;;;;2.78;2.58;;;;;;;23.25;100.00;56616.03;5060732;28;20260;-73
2023/12/16 04:57:50;;;;;;;3.42;3.22;;;;;;;23.25;100.00;56616.03;5072002;28;20658;-73
2023/12/16 05:00:16;;;;;;;2.33;2.22;;;;;;;-142.91;100.00;56616.03;5072429;28;20261;-73
2023/12/16 05:02:43;;;;;;;3.15;2.95;;;;;;;-142.91;100.00;56616.03;5070505;28;20692;-74
2023/12/16 05:05:10;;;;;;;2.00;1.90;;;;;;;-142.91;100.00;56616.03;5072192;28;20339;-74
2023/12/16 05:07:37;;;;;;;2.33;2.13;;;;;;;;;;5069454;28;20281;-75
2023/12/16 05:10:10;;;;;;;1.30;1.20;;;;;;;-142.91;100.00;56616.03;5053173;28;20231;-74
2023/12/16 05:12:36;;;;;;;1.77;1.67;;;;;;;-142.91;100.00;56616.03;5066222;28;20208;-75
2023/12/16 05:15:06;;;;;;;0.65;0.65;;;;;;;-142.91;100.00;56616.03;5054055;28;20294;-72
2023/12/16 05:17:33;;;;;;;2.28;1.10;;;;;;;;;;5053780;28;20222;-73
2023/12/16 05:19:59;;;;;;;0.68;0.68;;;;;;;-142.91;100.00;56616.03;5069786;28;20725;-74
2023/12/16 05:22:26;;;;;;;0.77;0.77;;;;;;;23.25;100.00;56616.03;5059468;28;20652;-72
2023/12/16 05:24:53;;;;;;;0.73;0.70;;;;;;;-142.91;100.00;56616.03;5063235;28;20237;-74
2023/12/16 05:27:19;;;;;;;0.70;0.70;;;;;;;-142.91;100.00;56616.03;5052710;28;20672;-73
2023/12/16 05:29:46;;;;;;;0.88;0.88;;;;;;;;;;5055181;28;20191;-74
2023/12/16 05:32:13;;;;;;;1.20;1.00;;;;;;;;;;5054039;28;20667;-73
2023/12/16 05:34:40;;;;;;;1.08;1.05;;;;;;;-142.91;100.00;56616.03;5052336;28;20209;-75
2023/12/16 05:37:06;;;;;;;1.00;0.90;;;;;;;-142.91;100.00;56616.03;5063461;28;20229;-72
2023/12/16 05:39:33;;;;;;;0.90;0.90;;;;;;;-142.91;100.00;56616.03;5060807;28;20318;-74
2023/12/16 05:42:00;;;;;;;1.00;1.00;;;;;;;-142.91;100.00;56616.03;5062849;28;20594;-74
2023/12/16 05:44:26;;;;;;;0.85;0.82;;;;;;;-142.91;100.00;56616.03;5063934;28;20229;-76
2023/12/16 05:46:53;;;;;;;1.25;1.17;;;;;;;-142.91;100.00;56616.03;5066477;28;20231;-75
2023/12/16 05:49:21;;;;;;;0.68;0.68;;;;;;;;;;5063330;28;20201;-75
2023/12/16 05:51:48;;;;;;;1.40;1.30;;;;;;;;;;5069805;28;20277;-74
2023/12/16 05:54:14;;;;;;;0.82;0.82;;;;;;;23.25;100.00;56616.03;5070980;28;20663;-75
2023/12/16 05:56:41;;;;;;;2.60;0.90;;;;;;;-142.91;100.00;56616.03;5060658;28;20490;-77
2023/12/16 05:59:07;;;;;;;1.10;1.10;;;;;;;;;;5073713;28;20210;-74
2023/12/16 06:01:34;;;;;;;0.98;0.88;;;;;;;23.25;100.00;56616.03;5071334;28;20742;-77
2023/12/16 06:04:01;;;;;;;1.42;1.05;;;;;;;-142.91;100.00;56616.03;5071671;28;20234;-76
2023/12/16 06:06:30;;;;;;;1.17;1.08;;;;;;;;;;5062145;28;20675;-75
2023/12/16 06:08:56;;;;;;;1.60;1.50;;;;;;;-142.91;100.00;56616.03;5045316;28;20201;-76
2023/12/16 06:11:23;;;;;;;1.52;1.10;;;;;;;-142.91;100.00;56616.03;5040673;28;20655;-75
2023/12/16 06:13:50;;;;;;;1.30;1.20;;;;;;;-142.91;100.00;56616.03;5050762;28;20615;-75
2023/12/16 06:16:17;;;;;;;1.25;1.15;;;;;;;23.25;100.00;56616.03;5052470;28;20209;-75
2023/12/16 06:18:44;;;;;;;1.48;1.20;;;;;;;-142.91;100.00;56616.03;5053084;28;20313;-76
2023/12/16 06:21:12;;;;;;;1.40;1.30;;;;;;;-142.91;100.00;56616.03;5052498;28;20206;-75
2023/12/16 06:23:40;;;;;;;1.10;1.10;;;;;;;23.25;100.00;56616.03;5051215;28;20287;-74
2023/12/16 06:26:06;;;;;;;1.20;1.20;;;;;;;;;;5051429;28;20222;-74
2023/12/16 06:28:33;;;;;;;1.00;1.00;;;;;;;-142.91;100.00;56616.03;5055096;28;20676;-73
2023/12/16 06:30:59;;;;;;;1.30;1.20;;;;;;;-142.91;100.00;56616.03;5053981;28;20261;-75
2023/12/16 06:33:26;;;;;;;1.40;1.40;;;;;;;-142.91;100.00;56616.03;5051564;28;20911;-74
2023/12/16 06:35:54;;;;;;;1.60;1.50;;;;;;;-142.91;100.00;56616.03;5053587;28;20281;-74
2023/12/16 06:38:20;;;;;;;0.98;0.98;;;;;;;;;;5051118;28;20640;-76
2023/12/16 06:40:48;;;;;;;1.10;1.10;;;;;;;-142.91;100.00;56616.03;5049649;28;20222;-75
2023/12/16 06:43:16;;;;;;;1.02;1.02;;;;;;;-142.91;100.00;56616.03;5053299;28;20242;-74
2023/12/16 06:45:42;;;;;;;0.70;0.70;;;;;;;-142.91;100.00;56616.03;5051922;28;20203;-75
2023/12/16 06:48:09;;;;;;;0.98;0.98;;;;;;;-142.91;100.00;56616.03;5051066;28;20226;-74
2023/12/16 06:50:36;;;;;;;0.88;0.88;;;;;;;-142.91;100.00;56616.03;5052739;28;20234;-79
2023/12/16 06:53:02;;;;;;;1.33;1.27;;;;;;;-142.91;100.00;56616.03;5054869;28;20195;-75
2023/12/16 06:55:29;;;;;;;1.30;1.20;;;;;;;-142.91;100.00;56616.03;5051104;28;20198;-75
2023/12/16 06:57:57;;;;;;;1.73;1.02;;;;;;;-142.91;100.00;56616.03;5037097;28;20294;-75
2023/12/16 07:00:23;;;;;;;0.82;0.82;;;;;;;-142.91;100.00;56616.03;5052945;28;20587;-75
2023/12/16 07:02:50;;;;;;;1.00;1.00;;;;;;;;;;5052940;28;20242;-75
2023/12/16 07:05:17;;;;;;;1.10;1.10;;;;;;;-142.91;100.00;56616.03;5054407;28;20266;-76
2023/12/16 07:07:44;;;;;;;0.88;0.88;;;;;;;-142.91;100.00;56616.03;5054605;28;20252;-76
2023/12/16 07:10:11;;;;;;;0.80;0.80;;;;;;;-142.91;100.00;56616.03;5052837;28;20195;-75
2023/12/16 07:12:38;;;;;;;1.13;0.77;;;;;;;-142.91;100.00;56616.03;5051953;28;20234;-76
2023/12/16 07:15:07;;;;;;;0.73;0.73;;;;;;;-142.91;100.00;56616.03;5051757;28;20685;-76
2023/12/16 07:17:34;;;;;;;2.90;1.80;;;;;;;;;;5051793;28;20207;-76
2023/12/16 07:20:00;;;;;;;1.77;1.00;;;;;;;-142.91;100.00;56616.03;5048432;28;20223;-74
2023/12/16 07:22:29;;;;;;;1.40;1.30;;;;;;;-142.91;100.00;56616.03;5048627;28;20294;-75
2023/12/16 07:24:56;;;;;;;1.25;1.17;;;;;;;-142.91;100.00;56616.03;5047688;28;20248;-75
2023/12/16 07:27:22;;;;;;;1.20;1.20;;;;;;;;;;5046051;28;20242;-76
2023/12/16 07:29:50;;;;;;;1.20;1.10;;;;;;;-142.91;100.00;56616.03;5054715;28;20207;-74
2023/12/16 07:32:18;;;;;;;1.63;1.10;;;;;;;-142.91;100.00;56616.03;5054051;28;20306;-75
2023/12/16 07:34:45;;;;;;;1.65;0.93;;;;;;;-142.91;100.00;56616.03;5054330;28;20198;-76
2023/12/16 07:37:12;;;;;;;3.25;1.20;;;;;;;-142.91;100.00;56616.03;5052684;28;20681;-74
2023/12/16 07:39:38;;;;;;;0.80;0.80;;;;;;;23.29;100.00;56616.03;5047111;28;20313;-75
2023/12/16 07:42:05;;;;;;;1.15;1.15;;;;;;;-142.91;100.00;56616.03;5051278;28;20431;-75
2023/12/16 07:44:32;;;;;;;1.20;1.10;;;;;;;-142.91;100.00;56616.03;5063327;28;20656;-78
2023/12/16 07:46:58;;;;;;;1.23;1.00;;;;;;;23.25;100.00;56616.03;5053087;28;20289;-74
2023/12/16 07:49:26;;;;;;;1.00;1.00;;;;;;;-142.91;100.00;56616.03;5051913;28;20230;-77
2023/12/16 07:51:54;;;;;;;1.10;1.10;;;;;;;-142.91;100.00;56616.03;5069933;28;20282;-76
2023/12/16 07:54:22;;;;;;;1.75;1.65;;;;;;;-142.91;100.00;56616.03;5060333;28;20285;-76
2023/12/16 07:56:49;;;;;;;1.50;1.40;;;;;;;-142.91;100.00;56616.03;5044992;28;20210;-75
2023/12/16 07:59:15;;;;;;;2.22;1.40;;;;;;;-142.91;100.00;56616.03;5045812;28;20306;-74
2023/12/16 08:01:42;;;;;;;1.50;1.30;;;;;;;-142.91;100.00;56616.03;5048966;28;20232;-75
2023/12/16 08:04:09;;;;;;;1.55;1.45;;;;;;;-142.91;100.00;56616.03;5053234;28;20266;-75
2023/12/16 08:06:37;;;;;;;1.17;0.95;;;;;;;-142.91;100.00;56616.03;5050215;28;20286;-74
2023/12/16 08:09:04;;;;;;;1.42;1.25;;;;;;;-142.91;100.00;56616.03;5065518;28;20232;-75
2023/12/16 08:11:31;;;;;;;1.77;1.30;;;;;;;-142.91;100.00;56616.03;5053861;28;20290;-74
2023/12/16 08:13:57;;;;;;;1.30;1.20;;;;;;;-142.91;100.00;56616.03;5052729;28;20203;-74
2023/12/16 08:16:24;;;;;;;2.95;1.00;;;;;;;-142.91;100.00;56616.03;5073381;28;20256;-76
2023/12/16 08:18:51;;;;;;;1.10;1.10;;;;;;;-142.91;100.00;56616.03;5071630;28;20300;-74
2023/12/16 08:21:17;;;;;;;1.67;1.58;;;;;;;;;;5072928;28;20198;-74
2023/12/16 08:23:46;;;;;;;1.58;1.48;;;;;;;-142.91;100.00;56616.03;5059931;28;20207;-74
2023/12/16 08:26:12;;;;;;;2.33;2.13;;;;;;;-142.91;100.00;56616.03;5075174;28;20233;-77
2023/12/16 08:28:40;;;;;;;2.25;2.15;;;;;;;;;;5073391;28;20293;-76
2023/12/16 08:31:07;;;;;;;2.03;1.92;;;;;;;-142.91;100.00;56616.03;5072700;28;20281;-75
2023/12/16 08:33:35;;;;;;;2.00;1.90;;;;;;;-142.91;100.00;56616.03;5071206;28;20209;-75
2023/12/16 08:36:01;;;;;;;1.50;1.40;;;;;;;;;;5071486;28;20285;-74
2023/12/16 08:38:28;;;;;;;1.90;1.80;;;;;;;-142.91;100.00;56616.03;5056554;28;20203;-75
2023/12/16 08:40:57;;;;;;;2.15;1.95;;;;;;;;;;5061039;28;20198;-74
2023/12/16 08:43:24;;;;;;;3.22;2.08;;;;;;;-142.91;100.00;56616.03;5057410;28;20205;-75
2023/12/16 08:45:51;;;;;;;3.42;2.38;;;;;;;-142.91;100.00;56616.03;5053942;28;20199;-74
2023/12/16 08:48:17;;;;;;;6.07;4.45;;;;;;;-142.91;100.00;56616.03;5052378;28;20238;-74
2023/12/16 08:50:44;;;;;;;1.85;1.73;;;;;;;-142.91;100.00;56616.03;5053013;28;20218;-75
2023/12/16 08:53:11;;;;;;;3.50;2.15;;;;;;;-142.91;100.00;56616.03;5053455;28;20903;-76
2023/12/16 08:55:41;;;;;;;2.22;1.67;;;;;;;-142.91;100.00;56616.03;5054167;28;20286;-76
2023/12/16 08:58:09;;;;;;;2.05;1.70;;;;;;;-142.91;100.00;56616.03;5053810;28;20226;-75
2023/12/16 09:00:35;;;;;;;2.10;1.67;;;;;;;-142.91;100.00;56616.03;5053162;28;20300;-76
2023/12/16 09:03:02;;;;;;;3.70;2.20;;;;;;;-142.91;100.00;56616.03;5055385;28;20199;-76
2023/12/16 09:05:31;;;;;;;1.88;1.77;;;;;;;;;;5052206;28;20237;-74
2023/12/16 09:07:57;;;;;;;2.47;1.63;;;;;;;-142.91;100.00;56616.03;5052308;28;20199;-77
2023/12/16 09:10:24;;;;;;;1.92;1.83;;;;;;;;;;5052106;28;20278;-74
2023/12/16 09:12:50;;;;;;;4.25;2.10;;;;;;;-142.91;100.00;56616.03;5052952;28;20230;-75
2023/12/16 09:15:18;;;;;;;4.75;3.20;;;;;;;-142.91;100.00;56616.03;5050106;28;20664;-76
2023/12/16 09:17:47;;;;;;;2.95;2.00;;;;;;;-142.91;100.00;56616.03;5051123;28;20286;-76
2023/12/16 09:20:13;;;;;;;2.42;2.33;;;;;;;-142.91;100.00;56616.03;5051310;28;20207;-75
2023/12/16 09:22:40;;;;;;;2.30;2.10;;;;;;;-142.91;100.00;56616.03;5050695;28;20268;-74
2023/12/16 09:25:08;;;;;;;2.10;1.90;;;;;;;-142.91;100.00;56616.03;5052143;28;20241;-75
2023/12/16 09:27:34;;;;;;;1.85;1.55;;;;;;;;;;5051484;28;20286;-76
2023/12/16 09:30:02;;;;;;;2.13;1.92;;;;;;;-142.91;100.00;56616.03;5051821;28;20231;-75
2023/12/16 09:32:30;;;;;;;1.77;1.67;;;;;;;-142.91;100.00;56616.03;5051881;28;20676;-75
2023/12/16 09:34:56;;;;;;;3.72;2.22;;;;;;;-142.91;100.00;56616.03;5051445;28;20742;-75
2023/12/16 09:37:23;;;;;;;1.55;1.40;;;;;;;-142.91;100.00;56616.03;5051286;28;20227;-75
2023/12/16 09:39:50;;;;;;;1.15;1.15;;;;;;;-142.91;100.00;56616.03;5049730;28;20304;-76
2023/12/16 09:42:16;;;;;;;4.82;1.35;;;;;;;;;;5049132;28;20756;-75
2023/12/16 09:44:44;;;;;;;1.70;1.60;;;;;;;-142.91;100.00;56616.03;5061907;28;20226;-76
2023/12/16 09:47:12;;;;;;;1.60;1.50;;;;;;;-142.91;100.00;56616.03;5067654;28;20703;-76
2023/12/16 09:49:41;;;;;;;2.08;1.83;;;;;;;-142.91;100.00;56616.03;5068309;28;20203;-76
2023/12/16 09:52:08;;;;;;;2.30;2.10;;;;;;;;;;5063040;28;20301;-76
2023/12/16 09:54:34;;;;;;;1.92;1.83;;;;;;;-142.91;100.00;56616.03;5056313;28;20687;-75
2023/12/16 09:57:01;;;;;;;2.10;1.98;;;;;;;;;;5069236;28;20664;-74
2023/12/16 09:59:28;;;;;;;3.97;2.38;;;;;;;;;;5056188;28;20306;-75
2023/12/16 10:01:58;;;;;;;2.08;1.98;;;;;;;-142.91;100.00;56616.03;5050645;28;20239;-75
2023/12/16 10:04:26;;;;;;;2.00;1.90;;;;;;;23.25;100.00;56616.03;5050093;28;20767;-75
2023/12/16 10:06:54;;;;;;;2.28;2.13;;;;;;;-142.91;100.00;56616.03;5051415;28;20254;-76
2023/12/16 10:09:22;;;;;;;2.35;2.25;;;;;;;-142.91;100.00;56616.03;5052521;28;20195;-75
2023/12/16 10:11:51;;;;;;;1.90;1.70;;;;;;;;;;5051994;28;20302;-76
2023/12/16 10:14:17;;;;;;;2.13;1.92;;;;;;;-142.91;100.00;56616.03;5051323;28;20229;-75
2023/12/16 10:16:46;;;;;;;2.15;2.05;;;;;;;-142.91;100.00;56616.03;5060373;28;20198;-75
2023/12/16 10:19:13;;;;;;;2.10;2.00;;;;;;;-142.91;100.00;56616.03;5067987;28;20198;-76
2023/12/16 10:21:41;;;;;;;2.38;1.60;;;;;;;;;;5050414;28;20202;-74
2023/12/16 10:24:09;;;;;;;1.70;1.60;;;;;;;;;;5064695;28;20580;-76
2023/12/16 10:26:41;;;;;;;1.65;1.50;;;;;;;;;;5070727;28;20198;-76
2023/12/16 10:29:08;;;;;;;1.73;1.63;;;;;;;-142.91;100.00;56616.03;5067810;28;20237;-75
2023/12/16 10:31:35;;;;;;;1.70;1.60;;;;;;;;;;5069443;28;20222;-75
2023/12/16 10:34:02;;;;;;;1.75;1.65;;;;;;;;;;5067486;28;20281;-76
2023/12/16 10:36:29;;;;;;;1.77;1.67;;;;;;;23.25;100.00;56616.03;5068571;28;20703;-76
2023/12/16 10:38:56;;;;;;;1.70;1.60;;;;;;;-142.91;100.00;56616.03;5067024;28;20222;-75
2023/12/16 10:41:24;;;;;;;2.25;2.05;;;;;;;-142.91;100.00;56616.03;5056578;28;20672;-75
2023/12/16 10:43:50;;;;;;;1.92;1.65;;;;;;;;;;5049696;28;20290;-76
2023/12/16 10:46:18;;;;;;;2.25;1.52;;;;;;;-142.91;100.00;56616.03;5063157;28;20273;-75
2023/12/16 10:48:48;;;;;;;3.40;1.77;;;;;;;23.25;100.00;56616.03;5068543;28;20281;-75
2023/12/16 10:51:15;;;;;;;2.65;2.22;;;;;;;;;;5055856;28;20221;-74
2023/12/16 10:53:44;;;;;;;1.80;1.70;;;;;;;-142.91;100.00;56616.03;5070270;28;20221;-77
2023/12/16 10:56:13;;;;;;;5.50;1.88;;;;;;;;;;5069457;28;20222;-74
2023/12/16 10:58:44;;;;;;;2.80;1.80;;;;;;;;;;5068919;28;20229;-75
2023/12/16 11:01:17;;;;;;;6.68;1.85;;;;;;;-142.91;100.00;56616.03;5056471;28;20246;-75
2023/12/16 11:03:53;;;;;;;3.22;2.33;;;;;;;-142.91;100.00;56616.03;5053922;28;20199;-76
2023/12/16 11:06:27;;;;;;;2.03;1.83;;;;;;;-142.91;100.00;56616.03;5069734;28;20614;-76
2023/12/16 11:08:55;;;;;;;3.08;1.48;;;;;;;-142.91;100.00;56616.03;5063046;28;20285;-76
2023/12/16 11:11:22;;;;;;;1.77;1.60;;;;;;;-142.91;100.00;56616.03;5067976;28;20214;-77
2023/12/16 11:13:52;;;;;;;2.67;1.67;;;;;;;23.25;100.00;56616.03;5057483;28;20207;-76
2023/12/16 11:16:27;;;;;;;2.47;1.50;;;;;;;23.26;100.00;56616.03;5067221;28;20203;-74
2023/12/16 11:18:56;;;;;;;1.95;1.85;;;;;;;-142.91;100.00;56616.03;5065751;28;20284;-75
2023/12/16 11:21:26;;;;;;;1.98;1.88;;;;;;;23.25;100.00;56616.03;5072175;28;20287;-78
2023/12/16 11:23:54;;;;;;;1.88;1.38;;;;;;;23.25;100.00;56616.03;5070916;28;20258;-77
2023/12/16 11:26:23;;;;;;;2.00;1.60;;;;;;;-142.91;100.00;56616.03;5074041;28;20258;-76
2023/12/16 11:28:54;;;;;;;1.55;1.45;;;;;;;-142.91;100.00;56616.03;5070396;28;20205;-77
2023/12/16 11:31:20;;;;;;;2.15;2.05;;;;;;;23.25;100.00;56616.03;5071552;28;20226;-76
2023/12/16 11:33:47;;;;;;;2.33;2.20;;;;;;;;;;5070231;28;20190;-76
2023/12/16 11:36:15;;;;;;;2.38;2.17;;;;;;;-142.91;100.00;56616.03;5063467;28;20310;-77
2023/12/16 11:38:42;;;;;;;4.43;2.53;;;;;;;;;;5053956;28;20199;-77
2023/12/16 11:41:11;;;;;;;3.00;2.80;;;;;;;23.26;100.00;56616.03;5053829;28;20791;-77
2023/12/16 11:43:46;;;;;;;3.10;2.90;;;;;;;;;;5051462;28;20240;-75
2023/12/16 11:46:32;;;;;;;3.97;3.58;;;;;;;23.25;100.00;56616.03;5051897;28;20198;-76
2023/12/16 11:48:59;;;;;;;2.95;2.65;;;;;;;;;;5040223;28;20595;-78
2023/12/16 11:51:25;;;;;;;4.50;2.38;;;;;;;-142.91;100.00;56616.03;5052454;28;20337;-75
2023/12/16 11:53:52;;;;;;;10.23;3.78;;;;;;;;;;5052303;28;20657;-76